Time;durP1;ratioP1;P1;durP2;ratioP2;P2;SDS_P1;SDS_P2;PMS_P1;PMS_P2;Temp;Humidity;BMP_temperature;BMP_pressure;BME280_temperature;BME280_humidity;BME280_pressure;Samples;Min_cycle;Max_cycle;Signal;HPM_P1;HPM_P2
2022/11/15 00:00:08;;;;;;;10.63;7.25;;;;;;;9.87;100.00;100136.09;686583;28;1241;-64
2022/11/15 00:00:47;;;;;;;9.65;6.93;;;;;;;9.92;100.00;100140.41;685867;28;4321;-65
2022/11/15 00:01:26;;;;;;;10.90;7.20;;;;;;;10.08;100.00;100136.75;686903;28;1259;-65
2022/11/15 00:02:05;;;;;;;9.10;6.88;;;;;;;9.97;100.00;100136.84;685103;28;1123;-66
2022/11/15 00:02:44;;;;;;;9.15;7.13;;;;;;;9.92;100.00;100145.63;685606;28;1223;-65
2022/11/15 00:03:27;;;;;;;8.63;7.07;;;;;;;10.04;100.00;100137.66;686395;28;1052;-65
2022/11/15 00:04:06;;;;;;;11.18;7.53;;;;;;;10.00;100.00;100138.56;686143;28;5132;-64
2022/11/15 00:04:45;;;;;;;10.32;7.20;;;;;;;9.93;100.00;100142.97;682857;28;2278;-66
2022/11/15 00:05:24;;;;;;;9.57;7.07;;;;;;;9.89;100.00;100138.69;685627;28;1147;-66
2022/11/15 00:06:04;;;;;;;10.40;7.25;;;;;;;9.88;100.00;100140.44;686086;28;1140;-65
2022/11/15 00:06:43;;;;;;;10.23;7.03;;;;;;;9.83;100.00;100138.72;685129;28;4339;-66
2022/11/15 00:07:22;;;;;;;10.90;7.18;;;;;;;9.77;100.00;100147.47;686571;28;1092;-66
2022/11/15 00:08:01;;;;;;;9.52;7.13;;;;;;;9.77;100.00;100137.03;687611;28;1293;-65
2022/11/15 00:08:40;;;;;;;8.23;6.72;;;;;;;9.92;100.00;100138.63;688467;28;1182;-65
2022/11/15 00:09:19;;;;;;;9.32;7.07;;;;;;;10.00;100.00;100141.19;686579;28;1968;-64
2022/11/15 00:09:58;;;;;;;10.40;7.50;;;;;;;10.10;100.00;100140.19;684514;28;4634;-66
2022/11/15 00:10:37;;;;;;;10.55;7.05;;;;;;;10.12;100.00;100146.28;685397;28;1108;-65
2022/11/15 00:11:16;;;;;;;9.23;7.10;;;;;;;10.22;100.00;100141.81;686388;28;1215;-64
2022/11/15 00:11:55;;;;;;;9.27;7.28;;;;;;;10.27;100.00;100139.13;686067;28;1281;-64
2022/11/15 00:12:34;;;;;;;9.20;7.00;;;;;;;10.20;100.00;100135.72;685549;28;1121;-65
2022/11/15 00:13:13;;;;;;;10.40;7.20;;;;;;;10.39;100.00;100139.00;686532;28;4984;-65
2022/11/15 00:13:56;;;;;;;9.98;7.13;;;;;;;10.31;100.00;100130.38;684589;28;1144;-66
2022/11/15 00:14:36;;;;;;;10.63;7.15;;;;;;;10.27;100.00;100126.06;686134;28;1112;-66
2022/11/15 00:15:15;;;;;;;10.45;7.00;;;;;;;10.28;100.00;100138.25;686721;28;1317;-64
2022/11/15 00:15:58;;;;;;;10.25;7.13;;;;;;;10.26;100.00;100130.44;685118;28;4294;-65
2022/11/15 00:16:37;;;;;;;9.45;6.88;;;;;;;10.16;100.00;100134.91;684648;28;1171;-65
2022/11/15 00:17:16;;;;;;;9.85;7.13;;;;;;;10.19;100.00;100136.59;683949;28;1172;-65
2022/11/15 00:17:55;;;;;;;9.15;6.90;;;;;;;10.18;100.00;100133.13;685608;28;1176;-65
2022/11/15 00:18:34;;;;;;;10.05;6.72;;;;;;;10.12;100.00;100132.31;686129;28;1203;-65
2022/11/15 00:19:13;;;;;;;9.40;7.25;;;;;;;10.14;100.00;100134.03;686309;28;4966;-64
2022/11/15 00:19:52;;;;;;;10.93;7.03;;;;;;;10.11;100.00;100131.47;687022;28;1156;-65
2022/11/15 00:20:33;;;;;;;11.55;7.47;;;;;;;10.31;100.00;100138.22;685514;28;1139;-64
2022/11/15 00:21:13;;;;;;;8.82;7.05;;;;;;;10.27;100.00;100137.38;684934;28;1207;-65
2022/11/15 00:21:52;;;;;;;9.65;6.75;;;;;;;10.19;100.00;100133.97;686688;28;4321;-65
2022/11/15 00:22:33;;;;;;;10.13;7.35;;;;;;;10.15;100.00;100134.91;684977;28;1041;-65
2022/11/15 00:23:12;;;;;;;10.45;6.93;;;;;;;10.13;100.00;100137.53;687012;28;1151;-65
2022/11/15 00:23:50;;;;;;;10.48;7.47;;;;;;;10.13;100.00;100140.13;685223;28;1384;-65
2022/11/15 00:24:29;;;;;;;11.48;7.22;;;;;;;10.21;100.00;100135.69;685653;28;1179;-65
2022/11/15 00:25:09;;;;;;;9.45;7.03;;;;;;;10.27;100.00;100136.50;684765;28;5168;-65
2022/11/15 00:25:55;;;;;;;9.55;6.82;;;;;;;10.19;100.00;100131.38;685419;28;1175;-65
2022/11/15 00:26:34;;;;;;;10.50;7.13;;;;;;;10.31;100.00;100135.59;684798;28;1123;-65
2022/11/15 00:27:13;;;;;;;10.10;7.10;;;;;;;10.37;100.00;100138.16;685188;28;1376;-65
2022/11/15 00:27:59;;;;;;;8.55;7.20;;;;;;;10.45;100.00;100140.69;686250;28;4367;-65
2022/11/15 00:28:39;;;;;;;9.10;6.78;;;;;;;10.33;100.00;100141.69;685584;28;1056;-64
2022/11/15 00:29:18;;;;;;;9.48;6.72;;;;;;;10.23;100.00;100138.28;685999;28;1919;-66
2022/11/15 00:29:57;;;;;;;9.57;7.18;;;;;;;10.25;100.00;100139.16;685608;28;1203;-64
2022/11/15 00:30:36;;;;;;;9.18;6.95;;;;;;;10.25;100.00;100148.75;685721;28;1120;-65
2022/11/15 00:31:15;;;;;;;9.45;7.05;;;;;;;10.35;100.00;100139.94;684765;28;5176;-64
2022/11/15 00:31:54;;;;;;;9.13;6.72;;;;;;;10.51;100.00;100133.63;685197;28;1195;-65
2022/11/15 00:32:33;;;;;;;9.30;7.00;;;;;;;10.45;100.00;100140.69;685213;28;1347;-64
2022/11/15 00:33:12;;;;;;;11.07;7.18;;;;;;;10.32;100.00;100151.25;686018;28;1088;-65
2022/11/15 00:33:52;;;;;;;8.68;6.88;;;;;;;10.23;100.00;100144.41;684427;28;4700;-65
2022/11/15 00:34:30;;;;;;;9.32;6.95;;;;;;;10.23;100.00;100141.78;685755;28;1120;-66
2022/11/15 00:35:09;;;;;;;8.32;6.85;;;;;;;10.19;100.00;100141.81;685155;28;1132;-65
2022/11/15 00:35:48;;;;;;;10.63;7.40;;;;;;;10.14;100.00;100141.88;684338;28;1235;-66
2022/11/15 00:36:27;;;;;;;10.05;7.20;;;;;;;10.28;100.00;100135.63;686095;28;1173;-65
2022/11/15 00:37:06;;;;;;;9.90;6.80;;;;;;;10.31;100.00;100132.97;685828;28;5174;-65
2022/11/15 00:37:47;;;;;;;9.82;7.43;;;;;;;10.23;100.00;100133.94;684725;28;1191;-64
2022/11/15 00:38:30;;;;;;;9.90;7.43;;;;;;;10.35;100.00;100139.94;684787;28;1167;-65
2022/11/15 00:39:09;;;;;;;9.43;6.95;;;;;;;10.28;100.00;100138.25;684971;28;1333;-66
2022/11/15 00:39:48;;;;;;;9.95;6.72;;;;;;;10.20;100.00;100136.59;685077;28;4488;-65
2022/11/15 00:40:27;;;;;;;10.07;7.03;;;;;;;10.21;100.00;100130.47;685592;28;1174;-65
2022/11/15 00:41:07;;;;;;;10.25;6.90;;;;;;;10.21;100.00;100133.09;684396;28;1167;-65
2022/11/15 00:41:46;;;;;;;10.50;7.40;;;;;;;10.29;100.00;100134.75;684348;28;1016;-65
2022/11/15 00:42:25;;;;;;;10.77;7.00;;;;;;;10.27;100.00;100132.13;685442;28;1064;-66
2022/11/15 00:43:03;;;;;;;8.50;6.80;;;;;;;10.25;100.00;100125.22;688063;28;5908;-65
2022/11/15 00:43:43;;;;;;;9.73;7.00;;;;;;;10.31;100.00;100130.38;684350;28;1227;-65
2022/11/15 00:44:22;;;;;;;10.57;6.80;;;;;;;10.42;100.00;100131.13;683916;28;1251;-64
2022/11/15 00:45:01;;;;;;;9.45;7.18;;;;;;;10.47;100.00;100134.56;684526;28;1207;-65
2022/11/15 00:45:41;;;;;;;9.95;6.93;;;;;;;10.60;100.00;100126.56;685566;28;4403;-65
2022/11/15 00:46:19;;;;;;;9.35;7.30;;;;;;;10.71;100.00;100135.09;684521;28;1168;-65
2022/11/15 00:46:58;;;;;;;9.85;7.20;;;;;;;10.69;100.00;100137.75;685961;28;1101;-66
2022/11/15 00:47:37;;;;;;;9.20;7.22;;;;;;;10.66;100.00;100131.69;684988;28;1163;-66
2022/11/15 00:48:16;;;;;;;10.82;6.95;;;;;;;10.65;100.00;100133.44;685190;28;1151;-65
2022/11/15 00:48:55;;;;;;;9.60;6.80;;;;;;;10.61;100.00;100137.00;684346;28;4629;-66
2022/11/15 00:49:36;;;;;;;10.05;6.78;;;;;;;10.68;100.00;100135.16;684753;28;972;-66
2022/11/15 00:50:16;;;;;;;9.90;6.85;;;;;;;10.65;100.00;100133.44;684535;28;1153;-65
2022/11/15 00:50:55;;;;;;;9.68;7.32;;;;;;;10.63;100.00;100144.81;685122;28;1441;-63
2022/11/15 00:51:34;;;;;;;10.18;7.10;;;;;;;10.59;100.00;100137.88;685239;28;1238;-65
2022/11/15 00:52:13;;;;;;;8.70;6.65;;;;;;;10.57;100.00;100136.16;685700;28;5141;-65
2022/11/15 00:52:52;;;;;;;11.05;6.90;;;;;;;10.56;100.00;100142.28;685382;28;1149;-65
2022/11/15 00:53:30;;;;;;;9.68;6.40;;;;;;;10.49;100.00;100132.78;685426;28;1120;-65
2022/11/15 00:54:09;;;;;;;9.90;7.00;;;;;;;10.52;100.00;100142.31;685249;28;1155;-65
2022/11/15 00:54:48;;;;;;;10.00;7.20;;;;;;;10.50;100.00;100137.13;685602;28;4316;-62
2022/11/15 00:55:27;;;;;;;9.13;6.88;;;;;;;10.46;100.00;100132.81;685108;28;1171;-66
2022/11/15 00:56:06;;;;;;;9.18;6.93;;;;;;;10.59;100.00;100132.66;686370;28;1111;-66
2022/11/15 00:56:45;;;;;;;9.68;6.78;;;;;;;10.65;100.00;100127.38;684942;28;1076;-65
2022/11/15 00:57:24;;;;;;;9.80;7.07;;;;;;;10.64;100.00;100130.84;685745;28;1274;-65
2022/11/15 00:58:03;;;;;;;8.85;6.70;;;;;;;10.76;100.00;100124.56;685326;28;5077;-65
2022/11/15 00:58:42;;;;;;;8.95;6.60;;;;;;;10.89;100.00;100120.91;685040;28;1247;-65
2022/11/15 00:59:21;;;;;;;10.43;7.13;;;;;;;10.90;100.00;100123.50;685267;28;1191;-65
2022/11/15 01:00:00;;;;;;;8.93;6.93;;;;;;;10.85;100.00;100127.91;684470;28;1156;-64
2022/11/15 01:00:39;;;;;;;9.65;6.55;;;;;;;10.89;100.00;100132.22;685166;28;933;-65
2022/11/15 01:01:18;;;;;;;9.13;6.90;;;;;;;10.89;100.00;100129.59;685782;28;4967;-65
2022/11/15 01:01:57;;;;;;;8.45;6.78;;;;;;;10.82;100.00;100134.97;685284;28;1183;-65
2022/11/15 01:02:36;;;;;;;8.95;7.00;;;;;;;10.78;100.00;100128.91;685540;28;1152;-65
2022/11/15 01:03:15;;;;;;;9.55;6.75;;;;;;;10.70;100.00;100129.03;686000;28;1135;-65
2022/11/15 01:03:57;;;;;;;9.52;6.88;;;;;;;10.69;100.00;100134.28;685066;28;4375;-65
2022/11/15 01:04:35;;;;;;;10.05;6.82;;;;;;;10.59;100.00;100141.34;685232;28;1159;-66
2022/11/15 01:05:14;;;;;;;8.20;6.72;;;;;;;10.54;100.00;100136.19;685692;28;1262;-65
2022/11/15 01:05:53;;;;;;;9.63;6.50;;;;;;;10.50;100.00;100131.91;685522;28;1183;-64
2022/11/15 01:06:32;;;;;;;9.60;6.93;;;;;;;10.49;100.00;100132.78;685118;28;1226;-64
2022/11/15 01:07:12;;;;;;;8.57;6.63;;;;;;;10.45;100.00;100132.84;685219;28;5153;-65
2022/11/15 01:07:55;;;;;;;9.88;6.43;;;;;;;10.59;100.00;100117.81;685478;28;1199;-66
2022/11/15 01:08:34;;;;;;;10.40;6.72;;;;;;;10.83;100.00;100121.88;685271;28;1004;-65
2022/11/15 01:09:13;;;;;;;9.77;6.82;;;;;;;10.89;100.00;100121.75;684801;28;1105;-65
2022/11/15 01:09:52;;;;;;;9.82;6.85;;;;;;;10.79;100.00;100120.19;684984;28;4618;-65
2022/11/15 01:10:33;;;;;;;8.63;6.70;;;;;;;10.80;100.00;100114.06;684497;28;1131;-64
2022/11/15 01:11:12;;;;;;;10.15;6.78;;;;;;;10.88;100.00;100114.81;685062;28;1356;-65
2022/11/15 01:11:51;;;;;;;9.80;6.97;;;;;;;10.85;100.00;100114.84;684105;28;1156;-66
2022/11/15 01:12:31;;;;;;;9.02;6.90;;;;;;;10.90;100.00;100114.81;685605;28;1206;-65
2022/11/15 01:13:10;;;;;;;9.38;6.93;;;;;;;10.82;100.00;100111.44;684830;28;4981;-66
2022/11/15 01:13:49;;;;;;;9.52;6.75;;;;;;;10.82;100.00;100114.91;685725;28;1025;-65
2022/11/15 01:14:28;;;;;;;9.50;6.60;;;;;;;10.99;100.00;100119.03;685245;28;969;-65
2022/11/15 01:15:08;;;;;;;8.85;6.70;;;;;;;11.14;100.00;100117.94;685115;28;1304;-65
2022/11/15 01:15:47;;;;;;;9.35;6.72;;;;;;;11.15;100.00;100111.81;685528;28;4489;-65
2022/11/15 01:16:26;;;;;;;8.75;6.60;;;;;;;11.01;100.00;100120.72;684731;28;3478;-66
2022/11/15 01:17:05;;;;;;;8.43;6.40;;;;;;;10.88;100.00;100120.06;685639;28;1001;-64
2022/11/15 01:17:44;;;;;;;9.40;6.45;;;;;;;10.84;100.00;100118.38;684553;28;1143;-65
2022/11/15 01:18:23;;;;;;;9.02;6.43;;;;;;;10.74;100.00;100122.00;685541;28;1334;-65
2022/11/15 01:19:02;;;;;;;9.60;6.70;;;;;;;10.73;100.00;100115.06;685080;28;4995;-64
2022/11/15 01:19:41;;;;;;;9.98;6.78;;;;;;;10.65;100.00;100114.28;684855;28;1211;-65
2022/11/15 01:20:20;;;;;;;10.32;6.82;;;;;;;10.61;100.00;100120.44;685559;28;1159;-65
2022/11/15 01:20:59;;;;;;;10.52;7.05;;;;;;;10.70;100.00;100120.31;684371;28;1246;-65
2022/11/15 01:21:38;;;;;;;9.15;6.55;;;;;;;10.75;100.00;100113.25;686203;28;1114;-66
2022/11/15 01:22:17;;;;;;;9.93;6.72;;;;;;;10.72;100.00;100111.56;685660;28;5160;-64
2022/11/15 01:22:56;;;;;;;9.15;6.57;;;;;;;10.72;100.00;100113.31;685203;28;1096;-64
2022/11/15 01:23:35;;;;;;;8.85;6.75;;;;;;;10.83;100.00;100110.56;684365;28;1196;-65
2022/11/15 01:24:15;;;;;;;10.07;6.78;;;;;;;11.01;100.00;100105.03;685011;28;1033;-65
2022/11/15 01:24:54;;;;;;;9.05;6.78;;;;;;;11.06;100.00;100107.56;684493;28;4301;-65
2022/11/15 01:25:32;;;;;;;9.65;6.70;;;;;;;11.03;100.00;100107.63;686456;28;1116;-65
2022/11/15 01:26:14;;;;;;;9.48;6.50;;;;;;;11.14;100.00;100108.31;685826;28;1183;-66
2022/11/15 01:26:53;;;;;;;9.77;6.72;;;;;;;11.02;100.00;100111.13;685801;28;1179;-65
2022/11/15 01:27:32;;;;;;;8.80;6.93;;;;;;;10.90;100.00;100107.81;688492;28;1160;-64
2022/11/15 01:28:11;;;;;;;9.63;6.78;;;;;;;10.96;100.00;100113.84;683880;28;5486;-66
2022/11/15 01:28:50;;;;;;;9.32;6.63;;;;;;;11.08;100.00;100108.44;682411;28;1205;-65
2022/11/15 01:29:29;;;;;;;9.20;6.68;;;;;;;10.98;100.00;100109.44;680968;28;1914;-66
2022/11/15 01:30:08;;;;;;;9.50;6.65;;;;;;;10.89;100.00;100113.91;681544;28;1245;-66
2022/11/15 01:30:48;;;;;;;11.38;6.90;;;;;;;10.83;100.00;100115.78;683853;28;4563;-65
2022/11/15 01:31:26;;;;;;;10.13;7.00;;;;;;;10.76;100.00;100116.72;684538;28;1332;-66
2022/11/15 01:32:05;;;;;;;10.15;7.22;;;;;;;10.74;100.00;100114.16;686020;28;1128;-66
2022/11/15 01:32:44;;;;;;;8.65;6.60;;;;;;;10.85;100.00;100114.84;685433;28;1108;-66
2022/11/15 01:33:23;;;;;;;9.60;6.93;;;;;;;10.90;100.00;100110.41;684670;28;1005;-64
2022/11/15 01:34:02;;;;;;;8.43;6.63;;;;;;;11.12;100.00;100111.84;684706;28;4965;-65
2022/11/15 01:34:41;;;;;;;8.55;6.65;;;;;;;11.14;100.00;100110.94;685695;28;1124;-66
2022/11/15 01:35:21;;;;;;;9.48;6.63;;;;;;;11.05;100.00;100118.94;684755;28;1216;-64
2022/11/15 01:36:04;;;;;;;10.00;6.72;;;;;;;10.96;100.00;100111.22;684690;28;1235;-65
2022/11/15 01:36:44;;;;;;;8.32;6.47;;;;;;;10.92;100.00;100112.16;685129;28;4512;-64
2022/11/15 01:37:23;;;;;;;9.65;6.35;;;;;;;10.83;100.00;100107.94;684555;28;1302;-65
2022/11/15 01:38:02;;;;;;;9.45;6.65;;;;;;;10.90;100.00;100107.81;686098;28;1064;-66
2022/11/15 01:38:41;;;;;;;10.07;6.40;;;;;;;10.94;100.00;100107.75;685626;28;5220;-65
2022/11/15 01:39:20;;;;;;;9.93;7.00;;;;;;;10.93;100.00;100111.28;684656;28;1227;-64
2022/11/15 01:39:59;;;;;;;8.82;6.60;;;;;;;10.85;100.00;100108.75;685266;28;4295;-65
2022/11/15 01:40:38;;;;;;;8.55;6.50;;;;;;;10.97;100.00;100113.81;685856;28;1116;-64
2022/11/15 01:41:21;;;;;;;11.05;7.00;;;;;;;10.98;100.00;100106.81;686023;28;1104;-65
2022/11/15 01:42:00;;;;;;;8.82;6.85;;;;;;;11.03;100.00;100108.47;685864;28;1278;-65
2022/11/15 01:42:39;;;;;;;8.85;6.70;;;;;;;10.93;100.00;100106.06;685797;28;1235;-64
2022/11/15 01:43:26;;;;;;;8.38;6.70;;;;;;;11.05;100.00;100103.25;684170;28;5142;-65
2022/11/15 01:44:39;;;;;;;9.73;6.78;;;;;;;11.15;100.00;100102.19;685380;28;1170;-66
2022/11/15 01:45:18;;;;;;;8.63;6.28;;;;;;;11.30;100.00;100103.72;684521;28;1140;-64
2022/11/15 01:46:12;;;;;;;9.38;6.75;;;;;;;11.25;100.00;100109.00;684489;28;4479;-65
2022/11/15 01:46:51;;;;;;;8.65;6.93;;;;;;;11.17;100.00;100103.06;685426;28;1109;-65
2022/11/15 01:47:38;;;;;;;9.70;6.70;;;;;;;11.12;100.00;100102.25;685857;28;1112;-65
2022/11/15 01:48:18;;;;;;;8.60;6.60;;;;;;;11.10;100.00;100106.63;684986;28;1152;-65
2022/11/15 01:49:01;;;;;;;9.65;6.60;;;;;;;11.07;100.00;100102.31;684617;28;4618;-65
2022/11/15 01:49:59;;;;;;;8.90;6.60;;;;;;;10.98;100.00;100109.44;685382;28;1219;-64
2022/11/15 01:50:38;;;;;;;9.27;6.80;;;;;;;10.89;100.00;100106.06;685086;28;1101;-65
2022/11/15 01:51:19;;;;;;;9.13;6.78;;;;;;;10.85;100.00;100109.63;684173;28;1045;-66
2022/11/15 01:52:01;;;;;;;9.48;6.93;;;;;;;10.93;100.00;100106.06;683560;28;4450;-66
2022/11/15 01:52:41;;;;;;;10.30;6.78;;;;;;;11.02;100.00;100106.78;685336;28;1113;-64
2022/11/15 01:53:23;;;;;;;8.65;6.78;;;;;;;11.02;100.00;100111.13;685159;28;1231;-64
2022/11/15 01:54:08;;;;;;;8.50;6.53;;;;;;;11.04;100.00;100104.13;685901;28;1214;-65
2022/11/15 01:54:51;;;;;;;8.88;6.45;;;;;;;10.97;100.00;100108.59;684694;28;4335;-64
2022/11/15 01:55:30;;;;;;;9.40;6.95;;;;;;;10.97;100.00;100105.13;685572;28;1199;-66
2022/11/15 01:56:13;;;;;;;10.85;7.00;;;;;;;10.93;100.00;100109.50;684722;28;1144;-65
2022/11/15 01:57:01;;;;;;;9.80;6.45;;;;;;;10.84;100.00;100102.69;685383;28;1177;-65
2022/11/15 01:57:45;;;;;;;8.73;6.68;;;;;;;10.84;100.00;100105.31;684995;28;1163;-65
2022/11/15 01:58:24;;;;;;;9.10;6.80;;;;;;;10.87;100.00;100100.03;684453;28;5071;-64
2022/11/15 01:59:07;;;;;;;8.85;6.63;;;;;;;10.81;100.00;100107.09;686024;28;1358;-65
2022/11/15 01:59:46;;;;;;;8.60;6.70;;;;;;;10.79;100.00;100099.25;686171;28;1127;-64
2022/11/15 02:00:26;;;;;;;10.02;6.75;;;;;;;11.01;100.00;100093.72;684345;28;1299;-65
2022/11/15 02:01:04;;;;;;;10.20;6.95;;;;;;;11.05;100.00;100093.63;684352;28;5004;-65
2022/11/15 02:01:44;;;;;;;10.48;6.93;;;;;;;11.02;100.00;100092.81;685105;28;1080;-65
2022/11/15 02:02:23;;;;;;;8.77;6.72;;;;;;;10.99;100.00;100088.47;685140;28;1349;-66
2022/11/15 02:03:02;;;;;;;9.45;6.50;;;;;;;11.00;100.00;100090.22;685023;28;1262;-66
2022/11/15 02:03:51;;;;;;;9.85;6.90;;;;;;;11.04;100.00;100091.06;684995;28;4331;-66
2022/11/15 02:04:39;;;;;;;10.13;6.90;;;;;;;11.16;100.00;100087.34;685216;28;1194;-65
2022/11/15 02:05:19;;;;;;;8.18;6.32;;;;;;;11.06;100.00;100090.13;685027;28;1245;-66
2022/11/15 02:05:58;;;;;;;8.93;6.32;;;;;;;11.01;100.00;100088.50;685643;28;1210;-65
2022/11/15 02:06:39;;;;;;;10.68;7.07;;;;;;;11.20;100.00;100084.69;686226;28;1139;-65
2022/11/15 02:07:20;;;;;;;9.50;6.57;;;;;;;11.23;100.00;100082.00;684446;28;5138;-65
2022/11/15 02:08:00;;;;;;;9.63;7.05;;;;;;;11.12;100.00;100086.56;686403;28;1179;-65
2022/11/15 02:08:39;;;;;;;9.43;6.68;;;;;;;11.04;100.00;100081.44;684881;28;1120;-65
2022/11/15 02:09:18;;;;;;;11.63;7.00;;;;;;;11.02;100.00;100087.56;684920;28;1922;-65
2022/11/15 02:10:06;;;;;;;8.13;6.47;;;;;;;11.20;100.00;100084.69;684037;28;4715;-64
2022/11/15 02:10:46;;;;;;;9.18;6.82;;;;;;;11.31;100.00;100087.13;684468;28;1242;-65
2022/11/15 02:11:25;;;;;;;11.05;7.05;;;;;;;11.29;100.00;100077.56;684670;28;1171;-65
2022/11/15 02:12:07;;;;;;;10.10;6.57;;;;;;;11.23;100.00;100079.41;684927;28;1091;-66
2022/11/15 02:12:47;;;;;;;8.95;6.97;;;;;;;11.36;100.00;100076.56;684172;28;4537;-64
2022/11/15 02:13:26;;;;;;;9.00;6.65;;;;;;;11.44;100.00;100084.25;685282;28;1112;-64
2022/11/15 02:14:06;;;;;;;9.27;6.90;;;;;;;11.45;100.00;100078.16;685015;28;1360;-65
2022/11/15 02:14:50;;;;;;;10.90;6.95;;;;;;;11.31;100.00;100074.03;684771;28;1048;-65
2022/11/15 02:15:40;;;;;;;9.05;6.72;;;;;;;11.36;100.00;100073.94;685897;28;1045;-65
2022/11/15 02:16:44;;;;;;;10.30;6.80;;;;;;;11.25;100.00;100068.91;684686;28;4991;-65
2022/11/15 02:17:38;;;;;;;9.88;6.78;;;;;;;11.27;100.00;100074.09;685181;28;1443;-65
2022/11/15 02:18:40;;;;;;;8.85;6.75;;;;;;;11.47;100.00;100071.16;684810;28;1036;-64
2022/11/15 02:19:30;;;;;;;9.40;7.13;;;;;;;11.46;100.00;100064.19;684754;28;5158;-64
2022/11/15 02:20:37;;;;;;;10.77;7.05;;;;;;;11.27;100.00;100064.53;685885;28;1048;-65
2022/11/15 02:21:38;;;;;;;8.93;6.90;;;;;;;11.42;100.00;100063.34;685256;28;1024;-64
2022/11/15 02:22:55;;;;;;;9.82;6.70;;;;;;;11.51;100.00;100059.72;684911;28;4995;-65
2022/11/15 02:24:24;;;;;;;9.13;6.60;;;;;;;11.28;100.00;100055.75;684981;28;1131;-65
2022/11/15 02:25:03;;;;;;;8.48;6.70;;;;;;;11.21;100.00;100055.00;685287;28;4983;-65
2022/11/15 02:26:07;;;;;;;11.27;7.05;;;;;;;11.15;100.00;100062.09;686120;28;1061;-65
2022/11/15 02:27:17;;;;;;;8.68;7.18;;;;;;;11.18;100.00;100060.28;686261;28;982;-65
2022/11/15 02:28:05;;;;;;;9.27;6.82;;;;;;;11.04;100.00;100057.03;685560;28;4545;-64
2022/11/15 02:28:57;;;;;;;9.52;7.03;;;;;;;11.12;100.00;100057.78;687128;28;1266;-65
2022/11/15 02:30:00;;;;;;;9.25;6.80;;;;;;;11.23;100.00;100061.06;684881;28;1981;-65
2022/11/15 02:30:47;;;;;;;9.82;7.03;;;;;;;11.32;100.00;100051.34;685448;28;1095;-65
2022/11/15 02:31:48;;;;;;;9.43;6.65;;;;;;;11.51;100.00;100062.34;682190;28;4994;-64
2022/11/15 02:32:48;;;;;;;10.35;7.03;;;;;;;11.35;100.00;100059.13;685402;28;1179;-64
2022/11/15 02:33:39;;;;;;;9.35;7.05;;;;;;;11.43;100.00;100054.63;684047;28;1159;-65
2022/11/15 02:34:32;;;;;;;9.48;7.20;;;;;;;11.42;100.00;100055.50;684556;28;5675;-66
2022/11/15 02:35:35;;;;;;;9.38;6.53;;;;;;;11.26;100.00;100057.56;685489;28;1024;-65
2022/11/15 02:36:29;;;;;;;9.95;6.85;;;;;;;11.24;100.00;100049.72;684667;28;976;-63
2022/11/15 02:37:56;;;;;;;10.38;6.75;;;;;;;11.30;100.00;100056.59;684626;28;5193;-65
2022/11/15 02:38:54;;;;;;;11.57;7.25;;;;;;;11.42;100.00;100050.28;682684;28;1219;-64
2022/11/15 02:39:55;;;;;;;9.95;6.72;;;;;;;11.48;100.00;100052.78;682749;28;1168;-65
2022/11/15 02:40:45;;;;;;;8.75;6.80;;;;;;;11.33;100.00;100055.69;684910;28;5611;-65
2022/11/15 02:41:33;;;;;;;10.40;7.07;;;;;;;11.21;100.00;100055.00;686209;28;1099;-65
2022/11/15 02:44:39;;;;;;;9.50;7.05;;;;;;;11.29;100.00;100054.88;683916;28;1073;-64
2022/11/15 02:45:28;;;;;;;10.05;6.88;;;;;;;11.23;100.00;100061.06;684850;28;1057;-64
2022/11/15 02:46:14;;;;;;;8.90;6.93;;;;;;;11.35;100.00;100061.75;685411;28;5026;-65
2022/11/15 02:47:14;;;;;;;8.60;6.82;;;;;;;11.35;100.00;100053.91;686537;28;1182;-65
2022/11/15 02:47:56;;;;;;;8.60;6.25;;;;;;;11.35;100.00;100051.28;685170;28;1200;-64
2022/11/15 02:48:36;;;;;;;9.63;6.95;;;;;;;11.28;100.00;100045.28;685555;28;1064;-65
2022/11/15 02:49:16;;;;;;;9.32;6.95;;;;;;;11.43;100.00;100049.38;684250;28;5012;-65
2022/11/15 02:49:59;;;;;;;8.25;6.85;;;;;;;11.29;100.00;100052.25;685203;28;1013;-64
2022/11/15 02:50:38;;;;;;;9.90;6.95;;;;;;;11.20;100.00;100050.66;683090;28;1110;-64
2022/11/15 02:51:18;;;;;;;10.30;6.93;;;;;;;11.31;100.00;100047.00;682839;28;949;-65
2022/11/15 02:51:57;;;;;;;10.10;6.72;;;;;;;11.41;100.00;100048.56;683799;28;4482;-65
2022/11/15 02:52:35;;;;;;;10.45;6.82;;;;;;;11.29;100.00;100043.56;685016;28;1257;-65
2022/11/15 02:53:15;;;;;;;8.70;6.75;;;;;;;11.24;100.00;100044.50;685631;28;949;-64
2022/11/15 02:53:54;;;;;;;8.90;6.75;;;;;;;11.36;100.00;100042.53;685746;28;1090;-65
2022/11/15 02:54:34;;;;;;;8.65;6.60;;;;;;;11.33;100.00;100043.47;684890;28;1140;-65
2022/11/15 02:55:33;;;;;;;9.20;6.88;;;;;;;11.31;100.00;100044.38;683073;28;4992;-64
2022/11/15 02:56:12;;;;;;;9.40;6.65;;;;;;;11.24;100.00;100039.25;683949;28;1098;-65
2022/11/15 02:57:03;;;;;;;9.45;6.47;;;;;;;11.16;100.00;100040.25;684811;28;1057;-65
2022/11/15 02:57:50;;;;;;;8.60;6.40;;;;;;;11.11;100.00;100040.34;684111;28;4337;-65
2022/11/15 02:58:52;;;;;;;10.43;6.70;;;;;;;11.11;100.00;100039.50;685226;28;1112;-64
2022/11/15 02:59:43;;;;;;;9.75;6.68;;;;;;;11.15;100.00;100039.41;686731;28;1032;-64
2022/11/15 03:00:22;;;;;;;9.27;6.90;;;;;;;11.16;100.00;100038.53;685257;28;1111;-65
2022/11/15 03:01:23;;;;;;;9.05;6.50;;;;;;;11.11;100.00;100039.50;686357;28;4995;-64
2022/11/15 03:02:08;;;;;;;8.25;6.13;;;;;;;11.09;100.00;100042.16;685223;28;1065;-64
2022/11/15 03:03:05;;;;;;;8.88;6.82;;;;;;;11.12;100.00;100038.59;687314;28;1120;-65
2022/11/15 03:04:08;;;;;;;9.35;7.03;;;;;;;11.08;100.00;100032.56;685589;28;4296;-63
2022/11/15 03:04:57;;;;;;;8.82;6.20;;;;;;;11.13;100.00;100037.72;684551;28;1259;-65
2022/11/15 03:05:58;;;;;;;8.63;6.40;;;;;;;11.06;100.00;100034.31;685362;28;1177;-63
2022/11/15 03:06:45;;;;;;;10.13;6.63;;;;;;;11.36;100.00;100043.41;687908;28;1013;-63
2022/11/15 03:07:42;;;;;;;10.02;6.57;;;;;;;11.54;100.00;100033.50;687224;28;4981;-64
2022/11/15 03:08:37;;;;;;;9.63;6.88;;;;;;;11.39;100.00;100042.50;685201;28;1021;-66
2022/11/15 03:09:25;;;;;;;8.50;6.20;;;;;;;11.57;100.00;100036.06;684137;28;1040;-65
2022/11/15 03:10:20;;;;;;;9.35;6.78;;;;;;;11.38;100.00;100035.50;684549;28;5059;-65
2022/11/15 03:11:09;;;;;;;8.60;6.60;;;;;;;11.24;100.00;100038.38;684735;28;1156;-65
2022/11/15 03:11:55;;;;;;;8.80;6.53;;;;;;;11.21;100.00;100036.69;684336;28;1211;-65
2022/11/15 03:12:54;;;;;;;8.95;6.60;;;;;;;11.19;100.00;100038.47;685079;28;1073;-65
2022/11/15 03:13:39;;;;;;;8.23;6.40;;;;;;;11.11;100.00;100037.75;684339;28;5094;-65
2022/11/15 03:14:28;;;;;;;9.35;6.40;;;;;;;11.06;100.00;100036.94;684833;28;1052;-65
2022/11/15 03:15:31;;;;;;;8.82;6.38;;;;;;;11.06;100.00;100035.22;684886;28;1411;-65
2022/11/15 03:16:18;;;;;;;8.75;6.45;;;;;;;11.05;100.00;100032.63;686076;28;1140;-66
2022/11/15 03:17:22;;;;;;;8.20;6.45;;;;;;;11.20;100.00;100037.59;684851;28;1147;-66
2022/11/15 03:18:10;;;;;;;8.48;6.75;;;;;;;11.39;100.00;100037.25;685124;28;1175;-65
2022/11/15 03:19:25;;;;;;;8.77;6.40;;;;;;;11.41;100.00;100038.09;684912;28;4407;-64
2022/11/15 03:20:07;;;;;;;8.25;6.22;;;;;;;11.32;100.00;100030.41;684893;28;1124;-66
2022/11/15 03:20:48;;;;;;;10.82;6.53;;;;;;;11.28;100.00;100036.59;684558;28;1228;-66
2022/11/15 03:21:29;;;;;;;8.68;6.18;;;;;;;11.31;100.00;100039.13;686434;28;1144;-65
2022/11/15 03:22:12;;;;;;;8.82;6.50;;;;;;;11.24;100.00;100035.75;684675;28;5118;-66
2022/11/15 03:22:54;;;;;;;8.45;5.90;;;;;;;11.30;100.00;100033.06;684945;28;1222;-65
2022/11/15 03:23:36;;;;;;;9.20;6.38;;;;;;;11.32;100.00;100039.09;685008;28;1123;-66
2022/11/15 03:24:19;;;;;;;9.45;5.97;;;;;;;11.27;100.00;100037.47;684217;28;1080;-66
2022/11/15 03:25:02;;;;;;;7.13;5.70;;;;;;;11.18;100.00;100036.75;683970;28;4623;-66
2022/11/15 03:25:46;;;;;;;7.78;5.97;;;;;;;11.12;100.00;100039.47;684844;28;1144;-64
2022/11/15 03:26:27;;;;;;;8.10;5.90;;;;;;;11.05;100.00;100038.72;684786;28;1095;-66